Time;durP1;ratioP1;P1;durP2;ratioP2;P2;SDS_P1;SDS_P2;PMS_P1;PMS_P2;Temp;Humidity;BMP_temperature;BMP_pressure;BME280_temperature;BME280_humidity;BME280_pressure;Samples;Min_cycle;Max_cycle;Signal;HPM_P1;HPM_P2
2023/07/06 00:01:49;;;;;;;13.20;8.70;;;;;;;26.33;49.42;100288.73;106216;1289;74335;-90
2023/07/06 00:04:14;;;;;;;10.50;8.80;;;;;;;26.33;49.34;100289.66;106342;1289;67087;-87
2023/07/06 00:06:40;;;;;;;13.30;8.40;;;;;;;26.32;49.41;100287.66;106293;1289;67674;-87
2023/07/06 00:09:06;;;;;;;10.80;8.70;;;;;;;26.32;49.71;100289.31;106439;1289;66974;-87
2023/07/06 00:11:37;;;;;;;11.90;8.90;;;;;;;26.32;49.82;100290.34;106441;1289;67635;-87
2023/07/06 00:14:07;;;;;;;11.40;8.80;;;;;;;26.32;49.85;100291.54;106300;1289;74444;-88
2023/07/06 00:16:52;;;;;;;11.80;8.90;;;;;;;26.31;49.86;100290.36;106370;1289;67765;-90
2023/07/06 00:19:19;;;;;;;10.40;8.30;;;;;;;26.31;49.75;100286.36;106229;1289;67062;-88
2023/07/06 00:21:45;;;;;;;11.50;8.80;;;;;;;26.31;49.84;100283.21;106423;1289;67764;-87
2023/07/06 00:24:10;;;;;;;11.60;8.70;;;;;;;26.30;49.72;100282.75;106369;1289;67665;-88
2023/07/06 00:26:36;;;;;;;11.30;8.50;;;;;;;26.30;49.84;100280.17;106302;1290;67735;-87
2023/07/06 00:29:01;;;;;;;13.90;9.20;;;;;;;26.30;49.91;100279.98;106484;1289;67009;-88
2023/07/06 00:31:50;;;;;;;10.50;8.60;;;;;;;26.29;50.08;100284.64;106325;1289;67569;-93
2023/07/06 00:34:17;;;;;;;13.50;9.20;;;;;;;26.29;50.20;100286.82;106427;1289;67694;-87
2023/07/06 00:36:43;;;;;;;14.30;9.10;;;;;;;26.29;50.06;100286.97;106287;1289;75300;-87
2023/07/06 00:39:12;;;;;;;10.40;8.80;;;;;;;26.29;50.05;100287.95;106428;1289;67534;-86
2023/07/06 00:41:38;;;;;;;13.00;8.70;;;;;;;26.28;50.06;100289.92;106432;1289;67665;-87
2023/07/06 00:44:04;;;;;;;13.30;8.80;;;;;;;26.28;50.04;100286.05;106295;1289;67997;-87
2023/07/06 00:46:42;;;;;;;13.30;8.70;;;;;;;26.27;50.28;100285.40;106453;1289;67615;-90
2023/07/06 00:49:11;;;;;;;9.00;7.80;;;;;;;26.27;50.32;100285.27;106400;1289;74530;-87
2023/07/06 00:51:37;;;;;;;12.60;8.80;;;;;;;26.27;50.27;100293.35;106424;1289;72461;-87
2023/07/06 00:54:08;;;;;;;13.40;8.70;;;;;;;26.26;50.34;100297.27;106466;1289;67648;-87
2023/07/06 00:56:36;;;;;;;10.70;8.60;;;;;;;26.26;50.41;100304.05;106314;1290;67446;-87
2023/07/06 00:59:04;;;;;;;12.60;8.60;;;;;;;26.25;50.47;100297.77;106399;1289;67538;-87
2023/07/06 01:01:31;;;;;;;12.30;9.20;;;;;;;26.25;50.39;100288.48;106286;1289;74346;-88
2023/07/06 01:03:58;;;;;;;12.10;8.90;;;;;;;26.25;50.54;100287.21;106327;1289;67601;-87
2023/07/06 01:06:37;;;;;;;11.10;8.50;;;;;;;26.25;50.53;100289.63;106442;1289;67607;-87
2023/07/06 01:09:06;;;;;;;11.80;8.60;;;;;;;26.24;50.56;100291.40;106289;1294;67856;-87
2023/07/06 01:11:33;;;;;;;14.00;8.60;;;;;;;26.24;50.45;100290.41;106472;1289;67673;-87
2023/07/06 01:13:58;;;;;;;11.50;8.70;;;;;;;26.24;50.64;100290.69;106303;1289;74333;-87
2023/07/06 01:16:37;;;;;;;14.20;8.20;;;;;;;26.24;50.57;100289.82;106431;1289;67643;-92
2023/07/06 01:19:43;;;;;;;12.40;8.50;;;;;;;26.24;50.69;100290.19;106345;1289;67613;-87
2023/07/06 01:25:09;;;;;;;9.90;8.10;;;;;;;26.22;50.62;100289.35;106270;1290;67455;-87
2023/07/06 01:27:59;;;;;;;13.20;8.40;;;;;;;26.22;50.80;100284.05;106248;1292;74476;-87
2023/07/06 01:30:40;;;;;;;;;;;;;;;26.22;50.71;100286.02;106341;1290;67007;-87
2023/07/06 01:33:15;;;;;;;10.30;8.50;;;;;;;26.19;50.72;100289.69;106281;1290;67115;-87
2023/07/06 01:35:57;;;;;;;13.50;8.40;;;;;;;26.19;50.84;100285.56;106263;1290;67583;-87
2023/07/06 01:38:23;;;;;;;14.80;8.70;;;;;;;26.19;50.59;100286.44;106196;1291;67136;-87
2023/07/06 01:40:49;;;;;;;11.20;8.30;;;;;;;26.20;50.73;100285.23;106291;1290;67681;-88
2023/07/06 01:43:21;;;;;;;14.40;8.60;;;;;;;26.19;50.70;100287.35;106252;1290;66966;-92
2023/07/06 01:45:47;;;;;;;12.90;7.90;;;;;;;26.19;50.75;100280.24;106137;1291;67532;-87
2023/07/06 01:48:13;;;;;;;9.10;7.90;;;;;;;26.19;50.83;100277.56;106171;1291;67677;-86
2023/07/06 01:51:28;;;;;;;13.90;7.50;;;;;;;26.19;50.63;100276.13;106229;1291;66934;-86
2023/07/06 01:54:00;;;;;;;12.60;8.00;;;;;;;26.18;50.62;100276.86;105793;1296;74526;-87
2023/07/06 01:56:48;;;;;;;13.40;8.10;;;;;;;26.18;50.62;100275.32;106115;1291;67141;-87
2023/07/06 01:59:17;;;;;;;12.10;7.70;;;;;;;26.18;50.82;100269.45;106233;1290;67557;-87
2023/07/06 02:01:44;;;;;;;11.70;7.70;;;;;;;26.18;50.65;100266.20;106186;1291;67765;-87
2023/07/06 02:04:18;;;;;;;14.60;8.00;;;;;;;26.18;50.75;100269.76;106188;1291;67579;-91
2023/07/06 02:06:44;;;;;;;15.30;8.40;;;;;;;26.18;50.63;100272.44;106146;1290;74974;-86
2023/07/06 02:09:13;;;;;;;14.10;7.70;;;;;;;26.18;50.62;100270.32;106284;1290;67743;-87
2023/07/06 02:11:39;;;;;;;17.50;8.10;;;;;;;26.18;50.67;100268.63;106293;1290;67681;-86
2023/07/06 02:14:04;;;;;;;18.10;7.70;;;;;;;26.18;50.67;100270.48;106341;1290;67572;-87
2023/07/06 02:16:30;;;;;;;13.00;7.40;;;;;;;26.17;50.68;100270.95;106326;1290;67747;-87
2023/07/06 02:18:58;;;;;;;12.40;7.40;;;;;;;26.18;50.54;100272.55;106241;1290;67871;-87
2023/07/06 02:21:32;;;;;;;9.00;7.10;;;;;;;26.17;50.58;100271.42;106503;1288;67818;-87
2023/07/06 02:23:58;;;;;;;12.50;7.10;;;;;;;26.16;50.40;100264.48;106562;1288;67028;-87
2023/07/06 02:26:25;;;;;;;11.90;7.00;;;;;;;26.17;50.54;100264.79;106389;1288;67623;-86
2023/07/06 02:28:52;;;;;;;11.50;7.30;;;;;;;26.16;50.33;100266.91;106508;1288;67568;-87
2023/07/06 02:31:18;;;;;;;11.80;6.80;;;;;;;26.16;50.33;100265.16;106531;1288;67517;-87
2023/07/06 02:33:44;;;;;;;10.70;7.40;;;;;;;26.16;50.43;100266.30;106312;1288;67900;-87
2023/07/06 02:36:11;;;;;;;13.60;7.20;;;;;;;26.16;50.27;100266.61;106494;1288;66943;-87
2023/07/06 02:38:37;;;;;;;13.40;7.10;;;;;;;26.16;50.29;100267.13;106521;1288;67667;-86
2023/07/06 02:41:05;;;;;;;9.10;6.50;;;;;;;26.15;50.28;100265.50;106528;1288;67621;-87
2023/07/06 02:43:31;;;;;;;10.60;6.60;;;;;;;26.15;50.17;100265.91;106557;1288;74279;-87
2023/07/06 02:46:19;;;;;;;9.30;6.60;;;;;;;26.15;50.18;100271.28;106330;1288;67747;-91
2023/07/06 02:48:46;;;;;;;10.60;6.70;;;;;;;26.14;50.09;100271.49;106436;1288;67621;-87
2023/07/06 02:51:12;;;;;;;8.60;6.40;;;;;;;26.14;50.10;100276.04;106513;1288;68010;-87
2023/07/06 02:53:38;;;;;;;10.30;6.40;;;;;;;26.14;50.02;100273.46;106518;1288;67601;-87
2023/07/06 02:56:03;;;;;;;8.90;6.40;;;;;;;26.14;50.09;100271.08;106404;1288;67098;-86
2023/07/06 02:58:29;;;;;;;13.90;6.60;;;;;;;26.14;50.00;100273.98;106507;1288;67529;-87
2023/07/06 03:01:04;;;;;;;11.10;7.10;;;;;;;26.13;49.91;100286.73;106461;1288;67635;-93
2023/07/06 03:03:30;;;;;;;11.00;8.20;;;;;;;26.13;49.95;100308.23;106531;1288;67440;-88
2023/07/06 03:05:55;;;;;;;30.90;9.20;;;;;;;26.11;49.84;100314.71;106504;1288;67405;-87
2023/07/06 03:08:21;;;;;;;14.20;8.30;;;;;;;26.07;49.43;100310.06;106611;1292;67845;-87
2023/07/06 03:10:47;;;;;;;18.50;8.90;;;;;;;26.02;49.04;100313.44;106480;1288;67355;-87
2023/07/06 03:13:13;;;;;;;24.80;8.70;;;;;;;25.98;48.85;100316.05;106503;1288;67682;-87
2023/07/06 03:15:40;;;;;;;19.70;7.90;;;;;;;25.93;48.91;100312.86;106496;1288;67580;-87
2023/07/06 03:18:06;;;;;;;14.30;8.30;;;;;;;25.89;48.75;100313.73;106497;1288;67433;-87
2023/07/06 03:20:36;;;;;;;10.70;8.30;;;;;;;25.84;48.78;100316.77;106403;1289;67608;-87
2023/07/06 03:23:02;;;;;;;11.50;8.30;;;;;;;25.80;49.07;100316.81;106401;1288;67307;-87
2023/07/06 03:25:28;;;;;;;13.10;8.70;;;;;;;25.75;49.07;100310.33;106441;1288;67837;-87
2023/07/06 03:27:54;;;;;;;14.20;8.50;;;;;;;25.72;49.29;100309.69;106394;1288;67007;-87
2023/07/06 03:30:24;;;;;;;13.90;8.60;;;;;;;25.69;49.22;100313.09;106300;1288;67617;-87
2023/07/06 03:32:50;;;;;;;13.70;8.10;;;;;;;25.65;49.09;100317.20;106237;1288;75374;-87
2023/07/06 03:35:15;;;;;;;13.50;8.90;;;;;;;25.59;49.37;100309.66;106225;1288;67756;-87
2023/07/06 03:37:42;;;;;;;13.60;8.70;;;;;;;25.51;49.38;100309.41;106459;1288;67684;-87
2023/07/06 03:40:10;;;;;;;13.10;8.60;;;;;;;25.43;49.68;100319.05;106452;1288;67889;-87
2023/07/06 03:42:45;;;;;;;15.90;8.60;;;;;;;25.38;49.90;100325.46;106304;1288;67643;-87
2023/07/06 03:45:15;;;;;;;18.20;8.60;;;;;;;25.35;49.91;100322.79;106363;1288;75339;-87
2023/07/06 03:47:45;;;;;;;17.10;8.90;;;;;;;25.31;50.04;100328.06;106255;1288;67664;-86
2023/07/06 03:50:12;;;;;;;13.50;8.90;;;;;;;25.24;50.29;100327.25;106431;1288;68131;-87
2023/07/06 03:52:38;;;;;;;13.30;9.00;;;;;;;25.15;50.09;100322.48;106367;1288;67557;-87
2023/07/06 03:55:14;;;;;;;19.80;8.70;;;;;;;25.08;50.20;100321.78;106472;1288;67558;-87
2023/07/06 03:57:46;;;;;;;15.70;8.70;;;;;;;25.05;50.51;100323.59;106407;1288;74302;-91
2023/07/06 04:00:22;;;;;;;14.80;9.00;;;;;;;25.06;50.63;100330.20;106446;1288;67716;-87
2023/07/06 04:02:52;;;;;;;19.80;9.50;;;;;;;25.08;50.58;100334.92;106351;1288;67705;-86
2023/07/06 04:05:20;;;;;;;18.20;10.00;;;;;;;25.07;50.42;100331.17;106453;1288;67512;-87
2023/07/06 04:07:45;;;;;;;16.10;9.20;;;;;;;25.00;50.57;100320.82;106362;1288;67682;-87
2023/07/06 04:10:11;;;;;;;19.10;9.60;;;;;;;24.98;50.63;100331.34;106492;1288;67064;-87
2023/07/06 04:12:46;;;;;;;17.80;8.90;;;;;;;25.00;50.55;100336.21;106312;1288;67699;-91
2023/07/06 04:15:12;;;;;;;18.90;8.80;;;;;;;25.01;50.52;100337.16;106483;1288;67621;-88
2023/07/06 04:17:39;;;;;;;20.10;8.70;;;;;;;24.99;50.66;100330.61;106474;1288;67443;-86
2023/07/06 04:20:17;;;;;;;18.10;8.70;;;;;;;24.97;50.87;100323.25;106605;1288;67528;-86
2023/07/06 04:22:43;;;;;;;11.60;8.40;;;;;;;24.96;50.90;100324.86;106465;1288;74331;-87
2023/07/06 04:25:08;;;;;;;18.10;8.10;;;;;;;24.98;50.83;100336.87;106429;1288;67690;-87
2023/07/06 04:27:52;;;;;;;19.70;8.60;;;;;;;25.02;50.70;100343.33;106473;1288;66929;-91
2023/07/06 04:30:18;;;;;;;20.00;8.90;;;;;;;25.01;50.73;100340.41;106436;1288;67738;-86
2023/07/06 04:32:48;;;;;;;15.40;8.70;;;;;;;24.96;50.79;100337.21;106307;1288;67109;-86
2023/07/06 04:35:14;;;;;;;;;;;;;;;24.93;50.88;100328.82;106583;1288;74568;-87
2023/07/06 04:37:41;;;;;;;17.00;7.80;;;;;;;24.90;50.99;100330.62;106482;1288;67066;-87
2023/07/06 04:40:12;;;;;;;17.30;9.10;;;;;;;24.93;51.10;100334.21;106448;1288;67247;-87
2023/07/06 04:42:48;;;;;;;15.00;8.40;;;;;;;24.97;51.03;100338.73;106359;1288;67693;-92
2023/07/06 04:45:17;;;;;;;20.50;8.20;;;;;;;25.00;50.78;100339.04;106354;1288;67718;-87
2023/07/06 04:47:44;;;;;;;16.40;8.10;;;;;;;25.01;50.98;100333.10;106494;1288;74369;-87
2023/07/06 04:50:22;;;;;;;15.90;7.50;;;;;;;25.01;50.75;100329.03;106466;1288;67024;-87
2023/07/06 04:52:51;;;;;;;16.50;7.70;;;;;;;25.00;50.56;100331.15;106484;1288;66963;-87
2023/07/06 04:55:22;;;;;;;15.70;7.70;;;;;;;25.00;50.65;100335.48;106336;1288;67560;-87
2023/07/06 04:57:54;;;;;;;16.10;7.90;;;;;;;25.00;50.54;100336.05;106526;1288;67767;-87
2023/07/06 05:03:07;;;;;;;13.50;8.00;;;;;;;25.02;50.48;100337.56;106215;1290;67982;-87
2023/07/06 05:05:41;;;;;;;14.00;7.90;;;;;;;25.01;50.26;100336.08;106185;1291;67727;-87
2023/07/06 05:08:07;;;;;;;13.10;7.70;;;;;;;25.02;50.57;100337.86;106273;1291;67649;-87
2023/07/06 05:10:34;;;;;;;19.10;7.70;;;;;;;25.04;50.49;100335.20;106176;1290;67132;-87
2023/07/06 05:13:01;;;;;;;13.40;7.60;;;;;;;25.05;50.51;100337.29;106276;1291;74346;-87
2023/07/06 05:18:06;;;;;;;13.20;7.20;;;;;;;25.08;50.40;100340.47;106084;1292;67821;-87
2023/07/06 05:20:33;;;;;;;17.40;7.90;;;;;;;25.10;50.19;100339.71;106135;1293;67019;-87
2023/07/06 05:22:59;;;;;;;15.20;7.20;;;;;;;25.12;50.06;100338.14;106190;1292;67076;-87
2023/07/06 05:25:26;;;;;;;13.30;7.90;;;;;;;25.13;50.21;100336.88;106274;1292;67718;-87
2023/07/06 05:27:52;;;;;;;11.90;7.40;;;;;;;25.14;49.88;100339.02;106225;1293;67625;-87
2023/07/06 05:33:32;;;;;;;16.60;8.20;;;;;;;25.19;50.26;100333.52;106269;1290;67524;-91
2023/07/06 05:35:58;;;;;;;13.60;8.10;;;;;;;25.22;50.04;100339.95;106156;1291;67676;-87
2023/07/06 05:38:25;;;;;;;10.30;7.80;;;;;;;25.24;50.01;100339.08;106202;1291;67057;-87
2023/07/06 05:40:50;;;;;;;13.90;8.40;;;;;;;25.27;50.08;100340.02;106220;1291;67691;-87
2023/07/06 05:43:18;;;;;;;15.60;8.00;;;;;;;25.29;50.19;100338.00;106166;1291;67707;-87
2023/07/06 05:45:45;;;;;;;16.10;7.90;;;;;;;25.32;50.08;100338.71;106233;1291;67834;-88
2023/07/06 05:50:57;;;;;;;13.60;7.70;;;;;;;25.32;50.21;100336.20;106294;1289;74377;-87
2023/07/06 05:53:23;;;;;;;22.00;9.20;;;;;;;25.35;50.09;100337.15;106401;1289;67797;-86
2023/07/06 05:55:49;;;;;;;10.70;8.20;;;;;;;25.39;50.14;100335.56;106270;1289;67670;-87
2023/07/06 05:58:16;;;;;;;18.70;8.10;;;;;;;25.41;50.23;100340.35;106289;1290;67627;-87
2023/07/06 06:00:41;;;;;;;11.30;8.00;;;;;;;25.43;50.13;100346.39;106289;1290;68136;-87
2023/07/06 06:03:07;;;;;;;18.70;8.30;;;;;;;25.45;50.30;100340.39;106335;1289;67703;-87
2023/07/06 06:05:33;;;;;;;13.60;8.40;;;;;;;25.47;50.19;100341.70;106421;1289;67799;-86
2023/07/06 06:08:00;;;;;;;11.10;7.60;;;;;;;25.49;50.03;100341.77;106266;1289;67294;-87
2023/07/06 06:10:26;;;;;;;13.90;8.60;;;;;;;25.49;50.29;100341.40;106413;1290;67647;-87
2023/07/06 06:12:52;;;;;;;13.90;7.90;;;;;;;25.51;50.47;100339.45;106171;1291;67758;-87
2023/07/06 06:15:27;;;;;;;14.50;8.00;;;;;;;25.54;50.51;100342.39;106183;1289;67654;-92
2023/07/06 06:17:52;;;;;;;23.60;10.60;;;;;;;25.55;50.30;100344.92;106379;1289;67691;-87
2023/07/06 06:20:19;;;;;;;15.80;8.80;;;;;;;25.57;50.53;100346.98;106435;1289;66974;-88
2023/07/06 06:22:44;;;;;;;13.30;8.00;;;;;;;25.59;50.31;100345.96;106317;1289;67766;-87
2023/07/06 06:25:10;;;;;;;26.10;11.80;;;;;;;25.61;50.49;100342.67;106381;1289;67643;-87
2023/07/06 06:27:36;;;;;;;15.90;10.50;;;;;;;25.62;50.47;100339.66;106406;1289;67780;-88
2023/07/06 06:30:01;;;;;;;13.90;9.30;;;;;;;25.64;50.47;100340.70;106219;1290;67992;-88
2023/07/06 06:32:29;;;;;;;14.20;8.90;;;;;;;25.66;50.41;100342.01;106358;1290;67623;-87
2023/07/06 06:34:54;;;;;;;18.70;11.10;;;;;;;25.68;50.55;100340.22;106367;1290;74442;-88
2023/07/06 06:37:20;;;;;;;18.50;9.90;;;;;;;25.71;50.68;100338.20;106299;1290;67625;-88
2023/07/06 06:39:46;;;;;;;14.50;10.40;;;;;;;25.73;50.54;100337.74;106230;1291;67064;-88
2023/07/06 06:42:20;;;;;;;32.40;26.80;;;;;;;25.76;50.53;100336.53;106178;1291;67316;-93
2023/07/06 06:44:46;;;;;;;26.20;20.20;;;;;;;25.79;50.62;100329.76;106131;1294;67691;-87
2023/07/06 06:47:11;;;;;;;42.70;33.70;;;;;;;25.83;50.60;100330.66;106150;1291;67830;-88
2023/07/06 06:49:39;;;;;;;23.30;20.40;;;;;;;25.85;50.50;100329.83;106329;1290;67688;-88
2023/07/06 06:52:05;;;;;;;17.70;14.90;;;;;;;25.87;50.48;100324.73;106279;1291;67339;-88
2023/07/06 06:54:30;;;;;;;18.30;11.80;;;;;;;25.90;50.43;100327.04;106342;1290;67023;-88
2023/07/06 06:56:56;;;;;;;16.00;10.30;;;;;;;25.92;50.28;100330.25;106262;1290;67882;-88
2023/07/06 06:59:22;;;;;;;21.20;9.50;;;;;;;25.94;50.18;100332.84;106378;1290;67649;-87
2023/07/06 07:01:50;;;;;;;18.00;10.90;;;;;;;25.95;50.26;100327.55;106428;1290;67699;-88
2023/07/06 07:04:16;;;;;;;24.80;16.90;;;;;;;25.96;50.08;100330.48;106394;1290;67690;-87
2023/07/06 07:06:42;;;;;;;19.20;13.30;;;;;;;25.97;50.18;100333.39;106371;1290;66941;-87
2023/07/06 07:09:12;;;;;;;16.10;10.70;;;;;;;25.99;49.95;100331.48;106241;1291;67901;-93
2023/07/06 07:11:38;;;;;;;16.30;9.40;;;;;;;26.00;50.01;100329.71;106185;1291;68979;-87
2023/07/06 07:14:07;;;;;;;16.40;8.60;;;;;;;26.01;49.94;100330.55;106237;1290;67572;-87
2023/07/06 07:16:34;;;;;;;11.70;10.40;;;;;;;26.02;49.94;100332.95;106200;1291;66912;-88
2023/07/06 07:19:00;;;;;;;14.30;10.50;;;;;;;26.03;50.12;100334.73;106382;1290;67186;-88
2023/07/06 07:21:26;;;;;;;18.30;13.40;;;;;;;26.04;50.08;100331.01;106162;1291;67878;-87
2023/07/06 07:23:52;;;;;;;18.30;12.30;;;;;;;26.06;49.93;100330.49;106152;1290;67540;-88
2023/07/06 07:26:25;;;;;;;15.10;10.90;;;;;;;26.08;49.98;100332.10;106103;1291;67664;-88
2023/07/06 07:28:51;;;;;;;17.50;10.30;;;;;;;26.09;50.08;100329.51;106151;1291;67809;-87
2023/07/06 07:31:18;;;;;;;10.50;8.30;;;;;;;26.10;49.83;100332.36;106268;1291;67703;-88
2023/07/06 07:33:44;;;;;;;13.40;8.30;;;;;;;26.13;49.57;100333.71;106282;1291;67190;-88
2023/07/06 07:36:11;;;;;;;16.90;7.80;;;;;;;26.15;49.78;100330.38;106133;1291;67130;-89
2023/07/06 07:38:37;;;;;;;11.60;7.80;;;;;;;26.16;49.72;100331.68;106216;1291;67706;-88
2023/07/06 07:41:03;;;;;;;11.40;8.30;;;;;;;26.19;49.59;100326.14;106205;1291;67715;-89
2023/07/06 07:43:33;;;;;;;10.00;8.30;;;;;;;26.21;49.62;100323.95;106361;1290;67868;-87
2023/07/06 07:46:03;;;;;;;26.10;13.50;;;;;;;26.23;49.69;100321.45;106053;1291;75340;-87
2023/07/06 07:48:30;;;;;;;17.40;12.10;;;;;;;26.25;49.47;100319.80;106109;1291;67530;-87
2023/07/06 07:51:07;;;;;;;17.40;9.90;;;;;;;26.28;49.34;100320.05;106099;1291;67818;-92
2023/07/06 07:53:37;;;;;;;14.90;8.20;;;;;;;26.30;49.26;100319.44;106083;1291;67657;-87
2023/07/06 07:56:04;;;;;;;9.40;7.80;;;;;;;26.32;49.23;100318.40;106256;1291;67602;-87
2023/07/06 07:58:31;;;;;;;14.50;7.60;;;;;;;26.34;49.05;100318.09;106084;1291;74152;-88
2023/07/06 08:01:00;;;;;;;11.90;7.80;;;;;;;26.36;48.94;100321.11;106107;1291;67026;-87
2023/07/06 08:03:29;;;;;;;13.50;7.60;;;;;;;26.38;48.80;100321.70;106062;1291;67557;-87
2023/07/06 08:05:55;;;;;;;12.70;8.10;;;;;;;26.41;48.85;100321.54;106146;1291;67753;-87
2023/07/06 08:08:24;;;;;;;14.90;9.10;;;;;;;26.43;48.79;100323.75;106037;1291;67974;-88
2023/07/06 08:10:50;;;;;;;12.10;8.40;;;;;;;26.45;48.74;100322.64;106014;1291;75576;-88
2023/07/06 08:13:17;;;;;;;11.40;8.00;;;;;;;26.46;48.74;100321.73;106186;1291;67721;-87
2023/07/06 08:15:44;;;;;;;13.50;8.30;;;;;;;26.47;48.61;100325.30;106078;1291;67028;-87
2023/07/06 08:18:10;;;;;;;17.50;8.40;;;;;;;26.49;48.52;100324.73;106158;1290;67696;-88
2023/07/06 08:20:35;;;;;;;14.60;7.90;;;;;;;26.50;48.35;100320.06;106120;1291;67694;-89
2023/07/06 08:23:04;;;;;;;17.20;9.50;;;;;;;26.51;48.31;100316.77;106220;1291;67750;-88
2023/07/06 08:25:37;;;;;;;11.50;9.30;;;;;;;26.51;48.31;100318.59;106245;1291;67738;-88
2023/07/06 08:28:05;;;;;;;11.10;9.10;;;;;;;26.51;48.14;100311.77;106153;1291;67670;-88
2023/07/06 08:30:32;;;;;;;12.70;9.60;;;;;;;26.52;48.20;100304.41;106101;1291;67125;-87
2023/07/06 08:33:00;;;;;;;16.80;9.40;;;;;;;26.54;48.31;100303.98;106243;1291;67766;-87
2023/07/06 08:35:25;;;;;;;18.90;9.40;;;;;;;26.55;48.12;100302.65;106176;1291;74348;-87
2023/07/06 08:37:51;;;;;;;19.90;11.50;;;;;;;26.56;47.84;100303.46;106176;1291;67757;-87
2023/07/06 08:40:18;;;;;;;12.40;10.50;;;;;;;26.58;47.66;100304.39;106197;1291;67749;-88
2023/07/06 08:42:47;;;;;;;18.70;9.50;;;;;;;26.60;47.76;100300.27;106096;1291;67687;-87
2023/07/06 08:45:21;;;;;;;11.40;9.90;;;;;;;26.62;47.59;100296.80;106050;1291;67590;-87
2023/07/06 08:47:47;;;;;;;11.70;8.80;;;;;;;26.63;47.45;100295.52;105967;1291;75238;-91
2023/07/06 08:50:15;;;;;;;14.90;8.90;;;;;;;26.64;47.26;100293.65;106094;1290;68345;-88
2023/07/06 08:52:41;;;;;;;13.30;8.10;;;;;;;26.65;47.06;100293.73;106028;1291;67987;-87
2023/07/06 08:55:11;;;;;;;10.90;8.40;;;;;;;26.66;47.16;100294.00;106363;1289;67770;-88
2023/07/06 08:57:37;;;;;;;10.30;8.10;;;;;;;26.67;47.04;100297.89;106181;1291;67559;-87
2023/07/06 09:00:03;;;;;;;9.50;7.30;;;;;;;26.69;46.93;100304.92;106209;1290;67860;-88
2023/07/06 09:02:30;;;;;;;9.80;7.50;;;;;;;26.71;46.90;100301.02;106095;1291;67080;-88
2023/07/06 09:04:56;;;;;;;8.80;7.40;;;;;;;26.74;46.81;100300.52;106240;1291;67202;-88
2023/07/06 09:07:34;;;;;;;10.30;7.60;;;;;;;26.76;46.67;100297.77;106183;1291;67734;-88
2023/07/06 09:10:00;;;;;;;14.40;8.20;;;;;;;26.77;46.64;100300.27;106164;1290;68026;-88
2023/07/06 09:12:32;;;;;;;38.10;34.00;;;;;;;26.78;46.59;100302.21;106275;1288;67880;-89
2023/07/06 09:15:03;;;;;;;25.40;22.40;;;;;;;26.79;46.40;100301.02;106491;1282;68140;-90
2023/07/06 09:20:03;;;;;;;17.60;13.00;;;;;;;26.81;46.14;100302.56;106493;1287;67625;-90
2023/07/06 09:22:29;;;;;;;10.50;9.00;;;;;;;26.81;45.84;100296.36;106309;1288;67057;-90
2023/07/06 09:24:59;;;;;;;13.90;7.60;;;;;;;26.82;45.79;100294.90;106245;1291;67746;-89
2023/07/06 09:27:26;;;;;;;10.60;7.90;;;;;;;26.85;45.77;100292.40;106260;1288;67795;-89
2023/07/06 09:30:00;;;;;;;10.00;7.60;;;;;;;26.88;45.73;100294.80;106277;1282;67709;-89
2023/07/06 09:35:08;;;;;;;14.90;7.50;;;;;;;26.92;45.57;100290.96;106317;1287;67215;-87
2023/07/06 09:42:50;;;;;;;10.80;7.90;;;;;;;26.95;45.08;100286.56;106468;1286;67556;-89
2023/07/06 09:45:27;;;;;;;10.50;7.60;;;;;;;26.95;44.92;100280.47;106493;1285;67547;-88
2023/07/06 09:47:58;;;;;;;9.80;8.50;;;;;;;26.95;44.92;100279.33;106496;1282;67402;-88
2023/07/06 09:52:59;;;;;;;13.90;8.40;;;;;;;26.96;44.81;100280.32;106393;1290;551868;-93
2023/07/06 09:55:29;;;;;;;13.00;9.30;;;;;;;26.97;44.80;100274.70;106337;1289;68602;-87
2023/07/06 09:58:00;;;;;;;;;;;;;;;26.97;44.74;100275.58;106320;1294;67573;-87
2023/07/06 10:00:35;;;;;;;17.30;12.60;;;;;;;26.95;44.77;100272.52;106343;1290;67692;-87
2023/07/06 10:03:14;;;;;;;23.70;15.20;;;;;;;26.97;44.62;100274.19;106298;1290;74384;-88
2023/07/06 10:06:02;;;;;;;12.70;10.80;;;;;;;26.99;44.52;100271.09;106169;1291;67707;-87
2023/07/06 10:08:58;;;;;;;13.00;9.20;;;;;;;27.01;44.46;100266.98;106309;1282;67713;31
2023/07/06 10:11:34;;;;;;;15.60;8.60;;;;;;;27.01;44.48;100256.79;106192;1289;67779;-91
2023/07/06 10:14:38;;;;;;;10.60;7.60;;;;;;;27.03;44.48;100253.69;106393;1289;67574;-87
2023/07/06 10:17:34;;;;;;;12.80;8.50;;;;;;;27.04;44.35;100251.84;106188;1290;74315;-88
2023/07/06 10:23:09;;;;;;;12.80;8.00;;;;;;;27.09;43.97;100246.91;106292;1289;67662;-87
2023/07/06 10:25:50;;;;;;;10.90;7.60;;;;;;;27.13;43.97;100247.73;106289;1289;67424;-87
2023/07/06 10:28:24;;;;;;;12.60;7.80;;;;;;;27.17;43.79;100247.55;106401;1289;67942;-88
2023/07/06 10:30:51;;;;;;;10.10;7.90;;;;;;;27.20;43.57;100241.31;106328;1290;74460;-87
2023/07/06 10:33:21;;;;;;;13.10;7.90;;;;;;;27.23;43.42;100238.02;106248;1290;67711;-87
2023/07/06 10:35:50;;;;;;;13.40;7.90;;;;;;;27.27;43.14;100237.81;106256;1290;67644;-88
2023/07/06 10:41:28;;;;;;;12.20;7.70;;;;;;;27.32;42.90;100229.95;106360;1289;67083;-87
2023/07/06 10:43:55;;;;;;;11.20;7.50;;;;;;;27.35;42.81;100220.67;106341;1290;74461;-87
2023/07/06 10:46:31;;;;;;;9.80;8.10;;;;;;;27.37;42.56;100218.90;106167;1289;67747;-87
2023/07/06 10:48:57;;;;;;;12.10;7.50;;;;;;;27.39;42.43;100216.52;106281;1289;67248;-87
2023/07/06 10:51:27;;;;;;;13.00;8.00;;;;;;;27.41;42.41;100211.56;106272;1289;67703;-87
2023/07/06 10:54:30;;;;;;;11.50;8.60;;;;;;;27.42;42.19;100210.54;106367;1290;67672;-87
2023/07/06 10:57:03;;;;;;;16.00;11.20;;;;;;;27.41;41.97;100204.94;105603;1299;75445;-87
2023/07/06 10:59:47;;;;;;;16.90;11.30;;;;;;;27.40;41.99;100201.30;106184;1289;67641;-88
2023/07/06 11:02:36;;;;;;;17.30;13.50;;;;;;;27.41;42.00;100200.77;106250;1289;67722;-92
2023/07/06 11:07:50;;;;;;;11.80;10.10;;;;;;;27.41;41.98;100195.70;106434;1288;67892;-87
2023/07/06 11:10:19;;;;;;;16.10;9.30;;;;;;;27.42;41.88;100197.81;106364;1288;74493;-87
2023/07/06 11:12:52;;;;;;;14.60;13.00;;;;;;;27.45;41.74;100196.50;106303;1288;67557;-87
2023/07/06 11:15:21;;;;;;;15.80;9.80;;;;;;;27.47;41.70;100199.77;106501;1288;67120;-87
2023/07/06 11:17:48;;;;;;;13.20;10.80;;;;;;;27.48;41.64;100199.48;106363;1288;67722;-87
2023/07/06 11:20:24;;;;;;;59.10;49.10;;;;;;;27.51;41.55;100201.77;106298;1288;67564;-92
2023/07/06 11:22:54;;;;;;;43.80;36.70;;;;;;;27.55;41.40;100199.84;106438;1288;74476;-87
2023/07/06 11:25:20;;;;;;;;;;;;;;;27.57;41.26;100197.20;106330;1288;67245;-87
2023/07/06 11:27:46;;;;;;;19.10;16.30;;;;;;;27.55;41.31;100199.05;106371;1288;67052;-87
2023/07/06 11:30:24;;;;;;;16.00;12.20;;;;;;;27.54;41.22;100193.70;106345;1288;67695;-87
2023/07/06 11:33:06;;;;;;;15.30;11.60;;;;;;;27.55;41.23;100192.91;106325;1288;67603;-87
2023/07/06 11:36:01;;;;;;;17.70;14.20;;;;;;;27.55;41.35;100191.81;106290;1288;75167;-87
2023/07/06 11:38:46;;;;;;;20.80;15.60;;;;;;;27.57;41.35;100190.13;106207;1290;67916;-87
2023/07/06 11:41:33;;;;;;;16.50;12.80;;;;;;;27.62;41.41;100187.67;106397;1290;67567;-90
2023/07/06 11:46:44;;;;;;;17.70;10.90;;;;;;;27.67;41.30;100186.34;106424;1288;67215;-87
2023/07/06 11:49:28;;;;;;;14.40;9.80;;;;;;;27.68;41.44;100179.58;106331;1288;74351;-86
2023/07/06 11:51:53;;;;;;;15.80;8.70;;;;;;;27.69;41.35;100179.88;106437;1288;67639;-87
2023/07/06 11:54:39;;;;;;;24.20;16.20;;;;;;;27.72;41.22;100175.02;106302;1290;67610;-87
2023/07/06 11:57:24;;;;;;;19.30;13.60;;;;;;;27.76;41.19;100170.79;106664;1289;66948;-88
2023/07/06 12:02:47;;;;;;;17.00;8.50;;;;;;;27.79;41.14;100160.70;106559;1289;74396;-88
2023/07/06 12:05:35;;;;;;;10.40;8.30;;;;;;;27.83;41.17;100156.65;106602;1289;67001;-87